Flight Track Log - Related Links

Times and Time Zones

All times are in EDT time to prevent confusion due to time zone crossing. See the WIG8300 flight status page for this flight to view local times or setup timezone preferences in your user account.

Time Position Orientation Groundspeed Altitude Reporting Facility
EDT Latitude Longitude Course Direction KTS MPH feet Rate Location/Type
Thu 05:52:51 AM 41.2833 -73.5833 63° Northeast 193 222 7,000  Level New York TRACON
Thu 05:53:45 AM 41.3000 -73.5333 66° East 189 217 7,000  Level New York TRACON
Thu 05:54:45 AM 41.3167 -73.4667 72° East 190 219 7,000  Level New York TRACON
Thu 05:55:00 AM 41.2162 -72.8096 63° Northeast  Level Estimated
Thu 05:55:51 AM 41.3500 -73.4000 56° Northeast 186 214 7,000  Level New York TRACON
Thu 05:56:00 AM 41.2370 -72.7543 63° Northeast  Level Estimated
Thu 05:56:45 AM 41.3667 -73.3500 66° East 185 213 7,000  Level New York TRACON
Thu 05:57:00 AM 41.2578 -72.6990 63° Northeast  Level Estimated
Thu 05:57:39 AM 41.3833 -73.2833 72° East 184 212 7,000  Level New York TRACON
Thu 05:58:00 AM 41.2785 -72.6436 63° Northeast  Level Estimated
Thu 05:58:01 AM 41.3908 -73.2728 47° Northeast 184 212 7,000  Level Boston Center
Thu 05:59:13 AM 41.4164 -73.1958 66° East 185 213 7,000  Level Boston Center
Thu 06:00:14 AM 41.4375 -73.1350 65° Northeast 185 213 7,000  Level Boston Center
Thu 06:01:09 AM 41.4586 -73.0772 64° Northeast 186 214 7,000  Level Boston Center
Thu 06:02:09 AM 41.4797 -73.0164 65° Northeast 188 216 7,000  Level Boston Center
Thu 06:03:45 AM 41.5167 -72.9167 64° Northeast 192 221 7,000  Level New York TRACON
Thu 06:04:04 AM 41.5242 -72.8947 65° Northeast 189 217 7,000 53 Level Boston Center
Thu 06:05:39 AM 41.5667 -72.7833 63° Northeast 191 220 7,100 40 Climbing New York TRACON
Thu 06:06:33 AM 41.5667 -72.7167 90° East 196 226 7,100  Level New York TRACON
Thu 06:07:39 AM 41.5833 -72.6500 71° East 203 234 7,100  Level New York TRACON
Thu 06:08:39 AM 41.5833 -72.5667 90° East 202 232 7,100  Level New York TRACON
Thu 06:09:45 AM 41.6000 -72.5000 71° East 200 230 7,100  Level New York TRACON
Thu 06:10:39 AM 41.6167 -72.4333 71° East 199 229 7,100  Level New York TRACON
Thu 06:11:45 AM 41.6167 -72.3500 90° East 206 237 7,100  Level New York TRACON
Thu 06:13:00 AM 41.6327 -72.2753 74° East  Level FlightAware Approximate
Thu 06:20:00 AM 41.6833 -71.8470 90° East  Level FlightAware Approximate
Thu 06:21:00 AM 41.6909 -71.7864 71° East  Level FlightAware Approximate
Thu 06:22:00 AM 41.7000 -71.7261 90° East  Level FlightAware Approximate
Thu 06:23:00 AM 41.7000 -71.6638 90° East  Level FlightAware Approximate
Thu 06:24:00 AM 41.7052 -71.6023 77° East  Level FlightAware Approximate
Thu 06:25:00 AM 41.7153 -71.5415 77° East  Level FlightAware Approximate
Thu 06:26:00 AM 41.7167 -71.4795 90° East  Level FlightAware Approximate
Thu 06:27:00 AM 41.7240 -71.4282 90° East  Level Estimated
Thu 06:28:00 AM 41.7240 -71.4282 90° East  Level Estimated
Thu 06:29:00 AM 41.7240 -71.4282 90° East  Level Estimated
Thu 06:30:00 AM 41.7240 -71.4282 90° East  Level Estimated
Thu 06:31:00 AM 41.7240 -71.4282 90° East  Level Estimated
Thu 06:32:00 AM 41.7240 -71.4282 90° East  Level Estimated
Thu 06:33:00 AM 41.7240 -71.4282 90° East  Level Estimated
Thu 06:34:00 AM 41.7240 -71.4282 90° East  Level Estimated
Thu 06:35:00 AM 41.7240 -71.4282 90° East  Level Estimated
Thu 06:36:00 AM 41.7240 -71.4282 90° East  Level Estimated
Thu 06:37:00 AM 41.7240 -71.4282 90° East  Level Estimated
Thu 06:38:00 AM 41.7240 -71.4282 90° East  Level Estimated
Thu 06:39:00 AM 41.7240 -71.4282 90° East  Level Estimated
Thu 06:40:00 AM 41.7240 -71.4282 90° East  Level Estimated
Thu 06:41:00 AM 41.7240 -71.4282 90° East  Level Estimated
Thu 06:42:00 AM 41.7240 -71.4282 90° East  Level Estimated

Login

Don't have an account? Register now (free) for customized features, flight alerts, and more!